Time;durP1;ratioP1;P1;durP2;ratioP2;P2;SDS_P1;SDS_P2;PMS_P1;PMS_P2;Temp;Humidity;BMP_temperature;BMP_pressure;BME280_temperature;BME280_humidity;BME280_pressure;Samples;Min_cycle;Max_cycle;Signal;HPM_P1;HPM_P2
2023/08/04 00:00:41;;;;;;;10.18;8.07;;;;;;;22.28;67.15;96056.22;5075318;28;20486;-67
2023/08/04 00:03:08;;;;;;;12.27;8.13;;;;;;;22.21;67.43;96051.47;5075287;28;20504;-65
2023/08/04 00:05:35;;;;;;;9.05;7.50;;;;;;;22.20;67.51;96052.44;5075301;28;20084;-66
2023/08/04 00:08:03;;;;;;;8.88;8.02;;;;;;;22.13;67.32;96054.00;5075197;28;20049;-66
2023/08/04 00:10:30;;;;;;;8.80;8.00;;;;;;;22.08;68.03;96058.91;5075360;28;20056;-66
2023/08/04 00:12:58;;;;;;;8.20;7.40;;;;;;;22.02;67.47;96065.66;5075269;28;20124;-67
2023/08/04 00:15:26;;;;;;;11.30;8.40;;;;;;;22.00;67.78;96064.94;5075031;28;20056;-66
2023/08/04 00:17:53;;;;;;;8.23;7.47;;;;;;;21.97;68.20;96062.56;5075036;28;20044;-66
2023/08/04 00:20:20;;;;;;;9.55;7.97;;;;;;;21.95;68.21;96075.19;5074803;28;20135;-67
2023/08/04 00:22:47;;;;;;;8.98;7.95;;;;;;;21.92;68.47;96064.81;5074957;28;20048;-66
2023/08/04 00:25:14;;;;;;;9.18;8.27;;;;;;;21.91;67.88;96066.63;5074966;28;20076;-65
2023/08/04 00:27:41;;;;;;;10.20;8.55;;;;;;;21.62;69.50;96066.59;5074901;28;20083;-65
2023/08/04 00:30:11;;;;;;;9.15;8.20;;;;;;;21.55;69.99;96061.84;5074809;28;20101;-67
2023/08/04 00:32:42;;;;;;;9.80;8.63;;;;;;;21.52;70.15;96063.94;5074914;28;20561;-65
2023/08/04 00:35:09;;;;;;;10.88;9.25;;;;;;;21.52;70.26;96067.44;5074733;28;20051;-66
2023/08/04 00:37:36;;;;;;;8.88;7.97;;;;;;;21.48;70.60;96059.88;5074712;28;20084;-65
2023/08/04 00:40:03;;;;;;;9.15;8.18;;;;;;;21.47;70.12;96064.38;5074466;28;20110;-66
2023/08/04 00:42:30;;;;;;;10.02;9.02;;;;;;;21.48;69.90;96063.38;5074427;28;20490;-66
2023/08/04 00:44:57;;;;;;;9.60;8.68;;;;;;;21.45;70.41;96069.81;5074539;28;20058;-67
2023/08/04 00:47:26;;;;;;;11.63;8.05;;;;;;;21.43;70.29;96070.94;5074555;28;20098;-66
2023/08/04 00:49:55;;;;;;;9.32;8.10;;;;;;;21.36;70.91;96057.34;5074572;28;20094;-66
2023/08/04 00:52:22;;;;;;;13.05;9.07;;;;;;;21.37;71.20;96063.50;5074413;28;20048;-66
2023/08/04 00:54:49;;;;;;;8.75;7.97;;;;;;;21.38;70.76;96065.19;5074334;28;20130;-66
2023/08/04 00:57:16;;;;;;;10.25;9.23;;;;;;;21.32;70.13;96061.25;5074170;28;20056;-66
2023/08/04 00:59:43;;;;;;;8.85;8.05;;;;;;;21.33;70.49;96061.13;5074267;28;20044;-65
2023/08/04 01:02:10;;;;;;;9.27;8.35;;;;;;;21.29;70.50;96054.41;5074507;28;20048;-66
2023/08/04 01:04:39;;;;;;;9.48;8.57;;;;;;;21.27;70.67;96056.34;5074022;28;20059;-66
2023/08/04 01:07:16;;;;;;;9.40;8.45;;;;;;;21.28;70.89;96055.34;5074186;28;20482;-66
2023/08/04 01:09:52;;;;;;;9.90;8.82;;;;;;;21.28;70.84;96055.34;5073563;28;20118;-66
2023/08/04 01:12:24;;;;;;;9.30;8.43;;;;;;;21.27;70.98;96053.69;5073758;28;20047;-65
2023/08/04 01:14:54;;;;;;;12.18;8.82;;;;;;;21.22;71.27;96050.59;5073951;28;20127;-66
2023/08/04 01:17:25;;;;;;;10.50;9.37;;;;;;;21.26;70.97;96056.47;5073902;28;20044;-66
2023/08/04 01:19:55;;;;;;;10.38;8.27;;;;;;;21.20;70.95;96048.06;5073481;28;20048;-65
2023/08/04 01:22:24;;;;;;;9.95;9.05;;;;;;;21.19;71.32;96050.88;5073836;28;20049;-66
2023/08/04 01:24:53;;;;;;;14.00;9.40;;;;;;;21.10;71.39;96054.34;5073670;28;20048;-66
2023/08/04 01:27:29;;;;;;;10.32;8.38;;;;;;;21.05;71.46;96052.09;5073740;28;20082;-66
2023/08/04 01:29:58;;;;;;;9.32;8.52;;;;;;;21.04;72.16;96051.25;5073588;28;20545;-66
2023/08/04 01:32:25;;;;;;;9.70;8.80;;;;;;;21.04;72.02;96051.25;5073599;28;20410;-66
2023/08/04 01:34:53;;;;;;;9.50;8.55;;;;;;;21.06;72.51;96054.63;5073572;28;20049;-66
2023/08/04 01:37:20;;;;;;;10.48;9.48;;;;;;;21.06;72.35;96048.47;5073522;28;20109;-66
2023/08/04 01:39:48;;;;;;;10.52;9.15;;;;;;;20.99;73.24;96047.31;5073423;28;20135;-66
2023/08/04 01:42:15;;;;;;;9.38;8.48;;;;;;;21.00;72.59;96046.34;5073456;28;20087;-66
2023/08/04 01:44:42;;;;;;;9.80;8.77;;;;;;;20.94;72.95;96045.06;5073376;28;20135;-65
2023/08/04 01:47:09;;;;;;;17.52;8.95;;;;;;;20.91;73.43;96051.50;5073393;28;20094;-66
2023/08/04 01:49:36;;;;;;;9.32;8.43;;;;;;;20.94;73.00;96048.56;5073347;28;20106;-67
2023/08/04 01:52:04;;;;;;;9.00;8.13;;;;;;;20.96;73.01;96054.59;5073222;28;20098;-66
2023/08/04 01:54:31;;;;;;;9.40;8.60;;;;;;;20.98;73.22;96053.63;5073331;28;20051;-65
2023/08/04 01:56:59;;;;;;;9.32;8.52;;;;;;;20.96;72.54;96056.41;5073466;28;20048;-65
2023/08/04 01:59:26;;;;;;;9.40;8.40;;;;;;;20.96;72.63;96062.56;5073069;28;20080;-66
2023/08/04 02:01:53;;;;;;;9.40;8.50;;;;;;;20.90;73.47;96057.81;5073218;28;20056;-66
2023/08/04 02:04:21;;;;;;;10.02;8.50;;;;;;;20.90;73.71;96063.13;5073162;28;20044;-66
2023/08/04 02:06:48;;;;;;;9.82;8.82;;;;;;;20.88;73.40;96064.19;5073195;28;20048;-66
2023/08/04 02:09:15;;;;;;;9.02;8.23;;;;;;;20.84;72.99;96067.09;5073099;28;20049;-66
2023/08/04 02:11:42;;;;;;;9.75;8.75;;;;;;;20.84;73.48;96067.09;5073074;28;20079;-66
2023/08/04 02:14:10;;;;;;;9.15;8.35;;;;;;;20.89;73.37;96069.34;5073043;28;20453;-66
2023/08/04 02:16:38;;;;;;;10.43;9.32;;;;;;;20.87;73.24;96065.16;5073071;28;20498;-66
2023/08/04 02:19:06;;;;;;;9.27;8.48;;;;;;;20.82;73.96;96070.88;5072942;28;20106;-67
2023/08/04 02:21:33;;;;;;;9.93;9.02;;;;;;;20.78;73.65;96070.31;5072639;28;20578;-66
2023/08/04 02:24:01;;;;;;;11.10;8.73;;;;;;;20.83;73.44;96069.91;5073006;28;20045;-67
2023/08/04 02:26:27;;;;;;;10.30;8.82;;;;;;;20.83;73.35;96072.59;5073032;28;20074;-67
2023/08/04 02:28:55;;;;;;;9.40;8.55;;;;;;;20.82;73.70;96079.69;5072914;28;20049;-66
2023/08/04 02:31:25;;;;;;;9.32;8.13;;;;;;;20.83;73.61;96078.72;5072941;28;20053;-67
2023/08/04 02:33:54;;;;;;;10.38;8.95;;;;;;;20.83;73.70;96081.38;5073103;28;20051;-66
2023/08/04 02:36:21;;;;;;;10.23;8.18;;;;;;;20.78;73.62;96086.25;5072941;28;20056;-65
2023/08/04 02:38:48;;;;;;;9.55;8.55;;;;;;;20.81;73.27;96090.47;5072859;28;20478;-66
2023/08/04 02:41:16;;;;;;;9.77;8.77;;;;;;;20.78;73.32;96096.91;5072734;28;20045;-66
2023/08/04 02:43:43;;;;;;;9.40;8.50;;;;;;;20.74;73.51;96099.94;5072930;28;20120;-66
2023/08/04 02:46:11;;;;;;;9.95;8.65;;;;;;;20.74;73.66;96100.75;5072829;28;20080;-66
2023/08/04 02:48:40;;;;;;;9.70;8.77;;;;;;;20.72;73.50;96100.06;5072903;28;20048;-67
2023/08/04 02:51:08;;;;;;;10.15;9.15;;;;;;;20.73;73.66;96108.88;5072853;28;20074;-67
2023/08/04 02:53:37;;;;;;;10.80;8.45;;;;;;;20.68;73.23;96104.81;5072546;28;20391;-66
2023/08/04 02:56:11;;;;;;;10.10;9.10;;;;;;;20.65;73.37;96107.72;5072657;28;20049;-66
2023/08/04 02:58:38;;;;;;;9.93;9.02;;;;;;;20.64;74.07;96111.34;5072732;28;20052;-67
2023/08/04 03:01:05;;;;;;;9.43;8.52;;;;;;;20.54;74.18;96107.81;5072615;28;20054;-66
2023/08/04 03:03:32;;;;;;;10.13;9.13;;;;;;;20.54;74.49;96108.66;5072582;28;20135;-66
2023/08/04 03:06:02;;;;;;;10.23;9.00;;;;;;;20.53;74.10;96106.97;5072535;28;20051;-67
2023/08/04 03:08:31;;;;;;;11.40;9.27;;;;;;;20.50;74.34;96109.88;5072543;28;20051;-66
2023/08/04 03:10:58;;;;;;;9.98;8.98;;;;;;;20.38;74.72;96103.78;5072645;28;20049;-66
2023/08/04 03:13:25;;;;;;;10.55;9.45;;;;;;;20.31;76.26;96108.78;5072552;28;20052;-66
2023/08/04 03:15:57;;;;;;;10.77;9.77;;;;;;;20.24;77.35;96109.44;5072637;28;20056;-66
2023/08/04 03:18:24;;;;;;;13.20;10.23;;;;;;;20.28;76.51;96108.22;5072416;28;20556;-66
2023/08/04 03:20:51;;;;;;;13.90;9.80;;;;;;;20.29;76.90;96108.06;5072051;28;20057;-66
2023/08/04 03:23:21;;;;;;;11.73;10.20;;;;;;;20.32;76.53;96107.81;5072435;28;20095;-66
2023/08/04 03:25:49;;;;;;;9.82;8.95;;;;;;;20.37;76.04;96112.75;5072398;28;20048;-66
2023/08/04 03:28:16;;;;;;;10.55;8.98;;;;;;;20.40;75.86;96101.00;5072340;28;20128;-65
2023/08/04 03:30:43;;;;;;;9.63;8.75;;;;;;;20.47;75.07;96111.97;5072377;28;20417;-66
2023/08/04 03:33:10;;;;;;;10.45;9.20;;;;;;;20.51;75.12;96111.59;5072400;28;20490;-66
2023/08/04 03:35:37;;;;;;;10.52;9.52;;;;;;;20.58;74.96;96109.22;5075804;28;20052;-66
2023/08/04 03:38:04;;;;;;;10.45;9.52;;;;;;;20.61;74.64;96116.94;5075906;28;20087;-66
2023/08/04 03:40:33;;;;;;;9.57;8.77;;;;;;;20.63;74.66;96114.16;5075748;28;20109;-66
2023/08/04 03:43:00;;;;;;;10.00;9.05;;;;;;;20.65;74.57;96118.34;5075760;28;20089;-66
2023/08/04 03:45:27;;;;;;;10.52;9.52;;;;;;;20.71;74.62;96119.66;5075896;28;20063;-66
2023/08/04 03:47:54;;;;;;;10.80;9.80;;;;;;;20.71;74.53;96127.63;5075814;28;20102;-66
2023/08/04 03:50:25;;;;;;;11.43;9.07;;;;;;;20.71;75.00;96124.97;5075685;28;20451;-65
2023/08/04 03:52:52;;;;;;;13.27;9.43;;;;;;;20.74;74.53;96123.84;5075596;28;20519;-66
2023/08/04 03:55:19;;;;;;;10.68;9.13;;;;;;;20.80;74.87;96126.81;5075661;28;20048;-66
2023/08/04 03:57:47;;;;;;;10.05;9.05;;;;;;;20.91;74.89;96141.03;5075441;28;20048;-66
2023/08/04 04:00:14;;;;;;;9.77;8.85;;;;;;;21.05;73.94;96143.34;5075329;28;20098;-66
2023/08/04 04:02:41;;;;;;;10.60;9.18;;;;;;;21.25;73.96;96134.59;5075371;28;20135;-66
2023/08/04 04:05:09;;;;;;;9.73;8.77;;;;;;;21.56;72.86;96140.69;5075359;28;20044;-66
2023/08/04 04:07:36;;;;;;;9.68;8.13;;;;;;;21.91;70.77;96129.69;5075437;28;20041;-66
2023/08/04 04:10:03;;;;;;;9.07;8.23;;;;;;;22.26;69.80;96132.75;5075345;28;20114;-66
2023/08/04 04:12:30;;;;;;;8.52;7.72;;;;;;;22.70;67.84;96135.78;5075220;28;20053;-66
2023/08/04 04:14:59;;;;;;;10.15;7.25;;;;;;;23.15;65.96;96143.22;5075154;28;20122;-65
2023/08/04 04:17:26;;;;;;;9.30;7.05;;;;;;;23.51;64.42;96139.84;5075164;28;20040;-65
2023/08/04 04:19:53;;;;;;;7.63;6.93;;;;;;;23.90;62.98;96144.09;5074808;28;20528;-65
2023/08/04 04:22:20;;;;;;;7.82;7.10;;;;;;;24.21;61.82;96139.22;5075065;28;20127;-66
2023/08/04 04:24:47;;;;;;;8.20;6.75;;;;;;;24.53;61.15;96144.97;5075088;28;20127;-66
2023/08/04 04:27:14;;;;;;;6.95;6.35;;;;;;;24.86;60.34;96142.50;5075023;28;20537;-66
2023/08/04 04:29:41;;;;;;;7.97;6.60;;;;;;;25.23;59.06;96151.25;5074887;28;20078;-65
2023/08/04 04:32:10;;;;;;;9.93;6.55;;;;;;;25.54;58.42;96147.19;5074689;28;20512;-65
2023/08/04 04:34:38;;;;;;;6.88;6.05;;;;;;;25.85;57.38;96146.63;5074763;28;20040;-67
2023/08/04 04:37:06;;;;;;;10.90;6.75;;;;;;;26.12;56.58;96150.00;5074848;28;20124;-66
2023/08/04 04:39:33;;;;;;;6.90;6.20;;;;;;;26.37;55.83;96149.22;5074612;28;20051;-64
2023/08/04 04:42:00;;;;;;;7.72;6.70;;;;;;;26.66;55.44;96155.06;5074621;28;20055;-65
2023/08/04 04:44:28;;;;;;;6.70;6.07;;;;;;;26.96;54.92;96156.19;5074501;28;20053;-66
2023/08/04 04:46:55;;;;;;;8.23;5.90;;;;;;;27.21;54.55;96156.13;5074513;28;20406;-66
2023/08/04 04:49:25;;;;;;;6.43;5.82;;;;;;;27.48;54.11;96156.69;5074492;28;20053;-67
2023/08/04 04:51:52;;;;;;;6.53;5.93;;;;;;;27.76;52.99;96152.75;5074346;28;20421;-66
2023/08/04 04:54:19;;;;;;;6.55;5.88;;;;;;;28.07;53.09;96149.19;5074318;28;20135;-66
2023/08/04 04:56:47;;;;;;;6.90;6.30;;;;;;;28.31;52.12;96157.25;5074245;28;20494;-66
2023/08/04 04:59:14;;;;;;;6.75;6.15;;;;;;;28.54;52.05;96159.09;5074099;28;20056;-66
2023/08/04 05:01:41;;;;;;;8.35;6.20;;;;;;;28.82;51.71;96159.34;5074141;28;20044;-66
2023/08/04 05:04:09;;;;;;;6.78;6.10;;;;;;;29.16;51.88;96165.22;5074106;28;20482;-67
2023/08/04 05:06:37;;;;;;;7.40;6.40;;;;;;;29.50;51.29;96171.09;5074192;28;20044;-67
2023/08/04 05:09:05;;;;;;;6.65;6.05;;;;;;;29.76;50.57;96175.97;5074149;28;20053;-66
2023/08/04 05:11:33;;;;;;;6.60;5.93;;;;;;;30.02;50.60;96173.78;5073960;28;20045;-66
2023/08/04 05:14:00;;;;;;;6.47;5.90;;;;;;;30.28;48.79;96172.44;5073952;28;20502;-66
2023/08/04 05:16:27;;;;;;;6.47;5.88;;;;;;;30.52;48.74;96165.78;5073801;28;20483;-67
2023/08/04 05:18:55;;;;;;;7.88;6.32;;;;;;;30.77;47.49;96165.41;5073786;28;20494;-66
2023/08/04 05:21:22;;;;;;;7.43;6.20;;;;;;;31.02;46.35;96167.63;5073447;28;20430;-67
2023/08/04 05:23:51;;;;;;;6.85;6.07;;;;;;;31.26;46.18;96170.91;5073760;28;20048;-66
2023/08/04 05:26:19;;;;;;;6.93;6.22;;;;;;;31.50;46.12;96165.22;5073708;28;20080;-66
2023/08/04 05:28:46;;;;;;;9.45;7.07;;;;;;;31.75;45.44;96170.94;5073703;28;20101;-67
2023/08/04 05:31:13;;;;;;;7.38;6.25;;;;;;;31.97;45.63;96164.59;5073497;28;20139;-67
2023/08/04 05:33:40;;;;;;;8.13;5.55;;;;;;;32.12;44.48;96165.22;5073696;28;20102;-66
2023/08/04 05:36:07;;;;;;;6.85;6.18;;;;;;;32.35;44.66;96166.72;5073592;28;20500;-66
2023/08/04 05:38:34;;;;;;;7.30;6.38;;;;;;;32.54;44.07;96172.41;5073550;28;20040;-67
2023/08/04 05:41:04;;;;;;;7.00;6.40;;;;;;;32.80;44.93;96168.03;5073480;28;20413;-66
2023/08/04 05:43:32;;;;;;;12.55;6.25;;;;;;;33.08;43.17;96171.56;5073594;28;20076;-66
2023/08/04 05:46:02;;;;;;;6.90;6.20;;;;;;;33.31;42.65;96173.00;5073530;28;20076;-66
2023/08/04 05:48:29;;;;;;;;;;;;;;;33.51;41.37;96172.91;5073814;28;20045;-66
2023/08/04 05:50:56;;;;;;;8.60;6.40;;;;;;;33.74;41.13;96175.13;5073245;28;20441;-67
2023/08/04 05:53:24;;;;;;;8.95;6.35;;;;;;;33.96;41.38;96174.00;5073396;28;20040;-67
2023/08/04 05:55:51;;;;;;;6.70;6.10;;;;;;;34.15;40.04;96186.66;5073070;28;20048;-67
2023/08/04 05:58:21;;;;;;;6.53;5.80;;;;;;;34.32;40.81;96175.28;5073184;28;20051;-67
2023/08/04 06:00:48;;;;;;;7.13;6.45;;;;;;;34.18;40.01;96179.94;5073078;28;20074;-66
2023/08/04 06:03:15;;;;;;;11.13;6.18;;;;;;;34.33;39.62;96179.66;5073421;28;20079;-67
2023/08/04 06:05:43;;;;;;;8.02;6.25;;;;;;;34.46;40.78;96175.19;5073382;28;20076;-66
2023/08/04 06:08:10;;;;;;;7.53;6.28;;;;;;;34.68;39.30;96181.09;5073402;28;20500;-65
2023/08/04 06:10:37;;;;;;;7.10;6.25;;;;;;;34.89;37.04;96174.44;5073268;28;20048;-67
2023/08/04 06:13:05;;;;;;;6.63;5.82;;;;;;;35.11;37.73;96176.75;5073125;28;20487;-66
2023/08/04 06:15:34;;;;;;;8.75;6.00;;;;;;;35.38;38.74;96173.78;5073003;28;20123;-66
2023/08/04 06:18:01;;;;;;;9.25;5.85;;;;;;;35.48;35.17;96178.66;5073169;28;20045;-67
2023/08/04 06:20:29;;;;;;;6.32;5.72;;;;;;;35.58;33.96;96178.16;5072767;28;20113;-65
2023/08/04 06:22:56;;;;;;;12.48;5.60;;;;;;;35.69;31.43;96179.28;5073138;28;20505;-65
2023/08/04 06:25:23;;;;;;;6.15;5.50;;;;;;;35.54;33.32;96174.19;5073091;28;20494;-67
2023/08/04 06:27:50;;;;;;;6.22;5.63;;;;;;;34.97;31.35;96180.66;5072991;28;20048;-66
2023/08/04 06:30:18;;;;;;;11.95;6.07;;;;;;;34.83;32.48;96177.22;5073071;28;20127;-67
2023/08/04 06:32:47;;;;;;;11.02;5.65;;;;;;;34.77;32.61;96176.22;5073134;28;20040;-66
2023/08/04 06:35:15;;;;;;;5.93;5.38;;;;;;;34.67;32.04;96173.97;5073010;28;20490;-66
2023/08/04 06:37:42;;;;;;;6.40;5.70;;;;;;;34.79;32.74;96176.81;5072866;28;20558;-66
2023/08/04 06:40:10;;;;;;;9.40;5.57;;;;;;;34.81;33.45;96180.16;5072751;28;20139;-67
2023/08/04 06:42:38;;;;;;;7.28;5.15;;;;;;;34.89;32.37;96171.72;5072749;28;20052;-66
2023/08/04 06:45:06;;;;;;;8.32;5.28;;;;;;;34.75;32.40;96171.00;5072865;28;20047;-65
2023/08/04 06:47:33;;;;;;;8.55;5.30;;;;;;;34.88;32.69;96172.78;5072726;28;20040;-67
2023/08/04 06:50:02;;;;;;;9.48;5.95;;;;;;;35.05;33.19;96161.31;5072810;28;20040;-67
2023/08/04 06:52:30;;;;;;;10.88;5.93;;;;;;;35.14;30.98;96161.88;5072746;28;20086;-65
2023/08/04 06:54:57;;;;;;;10.07;6.15;;;;;;;35.27;30.88;96160.91;5072721;28;20129;-66
2023/08/04 06:57:24;;;;;;;9.18;4.97;;;;;;;35.45;30.30;96157.38;5072646;28;20080;-67
2023/08/04 06:59:52;;;;;;;7.70;5.53;;;;;;;35.69;29.92;96162.97;5072626;28;20118;-65
2023/08/04 07:02:19;;;;;;;5.63;5.03;;;;;;;35.78;29.21;96167.03;5072771;28;20490;-66
2023/08/04 07:04:46;;;;;;;5.85;5.15;;;;;;;35.71;30.62;96166.31;5072635;28;20052;-68
2023/08/04 07:07:15;;;;;;;7.10;5.10;;;;;;;35.87;30.01;96166.72;5072527;28;20056;-66
2023/08/04 07:09:42;;;;;;;6.65;5.25;;;;;;;35.99;29.41;96161.34;5075114;28;20052;-65
2023/08/04 07:12:09;;;;;;;9.20;5.50;;;;;;;36.37;28.78;96167.50;5076366;28;20052;-67
2023/08/04 07:14:36;;;;;;;6.95;5.35;;;;;;;36.33;29.84;96160.88;5076227;28;20135;-66
2023/08/04 07:17:04;;;;;;;8.80;5.68;;;;;;;36.61;30.02;96164.84;5076084;28;20456;-68
2023/08/04 07:19:31;;;;;;;7.40;5.85;;;;;;;36.61;29.72;96165.69;5076156;28;20114;-68
2023/08/04 07:21:58;;;;;;;6.90;5.85;;;;;;;36.50;28.94;96164.59;5076053;28;20060;-65
2023/08/04 07:24:27;;;;;;;6.07;5.30;;;;;;;36.68;29.54;96157.38;5076091;28;20056;-67
2023/08/04 07:26:55;;;;;;;7.25;5.68;;;;;;;36.74;29.31;96163.81;5076117;28;20507;-66
2023/08/04 07:29:22;;;;;;;7.25;5.60;;;;;;;36.81;29.52;96161.00;5076082;28;20048;-67
2023/08/04 07:31:49;;;;;;;7.95;5.82;;;;;;;37.01;28.46;96158.72;5076109;28;20102;-66
2023/08/04 07:34:16;;;;;;;6.22;5.60;;;;;;;36.97;29.09;96162.16;5076016;28;20105;-66
2023/08/04 07:36:44;;;;;;;5.72;5.20;;;;;;;37.27;28.82;96167.53;5075798;28;20128;-68
2023/08/04 07:39:12;;;;;;;6.30;5.43;;;;;;;37.47;28.32;96155.38;5075837;28;20114;-67
2023/08/04 07:41:41;;;;;;;5.80;5.20;;;;;;;37.73;27.72;96168.72;5075680;28;20512;-68
2023/08/04 07:44:09;;;;;;;6.05;5.45;;;;;;;38.14;27.32;96175.00;5075836;28;20098;-65
2023/08/04 07:46:36;;;;;;;6.30;5.70;;;;;;;38.22;26.34;96168.31;5075639;28;20127;-66
2023/08/04 07:49:04;;;;;;;8.15;4.65;;;;;;;38.04;24.67;96169.34;5075495;28;20052;-65
2023/08/04 07:51:31;;;;;;;6.05;5.00;;;;;;;37.87;26.26;96172.03;5075745;28;20136;-66
2023/08/04 07:53:58;;;;;;;6.30;5.00;;;;;;;38.05;26.55;96171.81;5075522;28;20486;-67
2023/08/04 07:56:32;;;;;;;7.45;5.10;;;;;;;38.16;26.87;96178.31;5075525;28;20141;-68
2023/08/04 07:59:00;;;;;;;6.45;5.05;;;;;;;38.24;25.27;96176.25;5075424;28;20045;-67
2023/08/04 08:01:28;;;;;;;7.10;5.28;;;;;;;38.23;24.97;96177.34;5075445;28;20084;-67
2023/08/04 08:03:55;;;;;;;4.88;4.18;;;;;;;38.33;24.25;96171.22;5075401;28;20045;-67
2023/08/04 08:06:22;;;;;;;5.70;4.85;;;;;;;38.12;23.54;96170.84;5075287;28;20051;-68
2023/08/04 08:08:49;;;;;;;7.03;4.60;;;;;;;38.21;25.08;96171.28;5075330;28;20055;-67
2023/08/04 08:11:16;;;;;;;8.52;4.25;;;;;;;38.39;24.66;96175.72;5075193;28;20055;-68
2023/08/04 08:13:43;;;;;;;6.40;4.38;;;;;;;38.61;24.33;96177.72;5075194;28;20475;-68
2023/08/04 08:16:14;;;;;;;8.75;5.22;;;;;;;38.94;25.39;96178.81;5075481;28;20053;-67
2023/08/04 08:18:42;;;;;;;5.43;4.60;;;;;;;38.97;23.88;96178.31;5075103;28;20048;-66
2023/08/04 08:21:11;;;;;;;6.90;4.95;;;;;;;39.12;23.89;96179.66;5074489;28;20156;-66
2023/08/04 08:23:38;;;;;;;6.20;4.97;;;;;;;39.27;23.67;96171.66;5075110;28;20471;-67
2023/08/04 08:26:06;;;;;;;6.75;4.70;;;;;;;39.40;23.52;96183.31;5075062;28;20083;-66
2023/08/04 08:28:33;;;;;;;7.40;4.28;;;;;;;39.20;21.81;96170.19;5074919;28;20048;-66
2023/08/04 08:31:00;;;;;;;4.65;4.25;;;;;;;39.24;22.75;96177.63;5075051;28;20123;-68
2023/08/04 08:33:30;;;;;;;7.07;5.13;;;;;;;39.11;22.51;96178.00;5074759;28;20508;-68
2023/08/04 08:35:58;;;;;;;11.63;5.03;;;;;;;39.18;22.81;96181.38;5074965;28;20398;-66
2023/08/04 08:38:25;;;;;;;4.95;4.50;;;;;;;39.29;22.34;96182.34;5074721;28;20053;-68
2023/08/04 08:40:52;;;;;;;5.80;5.28;;;;;;;39.31;22.28;96172.00;5074571;28;20091;-67
2023/08/04 08:43:19;;;;;;;7.43;5.03;;;;;;;39.45;21.68;96169.72;5074687;28;20040;-66
2023/08/04 08:45:47;;;;;;;8.55;4.95;;;;;;;39.41;22.40;96176.78;5074696;28;20490;-68
2023/08/04 08:48:15;;;;;;;6.07;5.00;;;;;;;39.34;21.70;96178.88;5074599;28;20079;-66
2023/08/04 08:50:48;;;;;;;5.75;4.63;;;;;;;39.11;20.89;96176.09;5074425;28;20056;-66
2023/08/04 08:53:22;;;;;;;5.70;4.80;;;;;;;38.92;22.79;96172.78;5074383;28;20131;-66
2023/08/04 08:55:50;;;;;;;5.13;4.65;;;;;;;39.11;22.51;96181.56;5074445;28;20044;-68
2023/08/04 08:58:17;;;;;;;10.30;4.68;;;;;;;39.02;22.87;96172.94;5074427;28;20060;-66
2023/08/04 09:00:45;;;;;;;5.57;4.85;;;;;;;39.04;22.97;96175.41;5074128;28;20071;-66
2023/08/04 09:03:12;;;;;;;8.68;4.72;;;;;;;39.05;23.34;96171.59;5073998;28;20462;-67
2023/08/04 09:05:39;;;;;;;5.47;4.93;;;;;;;39.06;22.64;96175.97;5074221;28;20044;-68
2023/08/04 09:08:08;;;;;;;7.95;5.20;;;;;;;39.12;23.06;96176.94;5074250;28;20130;-68
2023/08/04 09:10:37;;;;;;;5.90;4.83;;;;;;;39.27;22.75;96166.19;5074209;28;20053;-68
2023/08/04 09:13:08;;;;;;;6.47;4.43;;;;;;;39.23;22.77;96165.06;5074094;28;20051;-68
2023/08/04 09:15:46;;;;;;;6.97;5.15;;;;;;;39.11;22.82;96169.78;5073957;28;20102;-68
2023/08/04 09:18:25;;;;;;;7.05;5.43;;;;;;;38.68;21.95;96159.31;5074071;28;20060;-67
2023/08/04 09:20:58;;;;;;;6.13;5.63;;;;;;;38.46;24.09;96159.19;5073613;28;20052;-69
2023/08/04 09:23:29;;;;;;;5.78;5.05;;;;;;;38.54;25.35;96153.31;5073893;28;20178;-67
2023/08/04 09:25:56;;;;;;;6.00;5.40;;;;;;;38.28;22.00;96147.44;5074140;28;20440;-66
2023/08/04 09:28:23;;;;;;;5.45;4.95;;;;;;;38.47;23.10;96148.03;5073928;28;20048;-66
2023/08/04 09:31:06;;;;;;;8.82;5.10;;;;;;;38.59;23.49;96142.47;5073236;28;20045;-69
2023/08/04 09:33:34;;;;;;;8.43;5.85;;;;;;;38.76;21.84;96144.41;5071870;28;20048;-68
2023/08/04 09:36:06;;;;;;;7.70;5.40;;;;;;;38.61;23.23;96143.03;5073659;28;20044;-67
2023/08/04 09:38:36;;;;;;;10.82;5.65;;;;;;;38.74;22.52;96131.00;5073763;28;20052;-67
2023/08/04 09:41:06;;;;;;;10.60;5.18;;;;;;;38.76;22.28;96134.28;5073441;28;20048;-66
2023/08/04 09:43:33;;;;;;;8.85;5.80;;;;;;;38.61;22.70;96126.66;5073614;28;20044;-66
2023/08/04 09:46:05;;;;;;;6.10;5.50;;;;;;;38.50;22.60;96139.34;5073510;28;20124;-67
2023/08/04 09:48:32;;;;;;;7.50;5.90;;;;;;;38.18;23.02;96120.78;5073457;28;20141;-66
2023/08/04 09:51:07;;;;;;;6.82;5.90;;;;;;;38.10;24.09;96126.59;5073462;28;20049;-66
2023/08/04 09:53:44;;;;;;;7.50;5.80;;;;;;;38.21;24.31;96122.16;5073545;28;20482;-66
2023/08/04 09:56:12;;;;;;;7.13;5.15;;;;;;;38.36;24.14;96117.00;5073450;28;20049;-65
2023/08/04 09:58:39;;;;;;;6.00;5.40;;;;;;;38.55;24.44;96117.56;5073287;28;20059;-66
2023/08/04 10:01:06;;;;;;;7.05;5.85;;;;;;;38.52;23.69;96115.31;5073240;28;20084;-66
2023/08/04 10:03:34;;;;;;;5.68;5.22;;;;;;;38.71;23.99;96122.47;5073164;28;20052;-67
2023/08/04 10:06:03;;;;;;;7.05;5.57;;;;;;;38.35;23.98;96122.69;5073194;28;20129;-66
2023/08/04 10:08:32;;;;;;;6.72;5.43;;;;;;;38.46;24.29;96124.50;5073111;28;20482;-66
2023/08/04 10:11:02;;;;;;;6.13;5.53;;;;;;;38.19;23.47;96119.69;5073072;28;20048;-65
2023/08/04 10:13:33;;;;;;;6.80;6.10;;;;;;;37.82;24.92;96114.63;5073108;28;20048;-66
2023/08/04 10:16:05;;;;;;;6.57;5.47;;;;;;;37.71;24.47;96114.44;5073063;28;20122;-66
2023/08/04 10:18:47;;;;;;;6.68;6.07;;;;;;;37.78;24.58;96119.75;5072973;28;20048;-67
2023/08/04 10:21:15;;;;;;;6.93;5.68;;;;;;;37.85;23.77;96122.31;5072761;28;20056;-68
2023/08/04 10:23:42;;;;;;;8.85;6.20;;;;;;;37.91;23.16;96118.63;5073004;28;20109;-66
2023/08/04 10:26:15;;;;;;;9.27;5.93;;;;;;;38.05;24.98;96113.69;5072964;28;20088;-67
2023/08/04 10:29:06;;;;;;;8.40;5.95;;;;;;;38.29;23.62;96116.31;5073004;28;20048;-69
2023/08/04 10:31:52;;;;;;;7.57;5.78;;;;;;;38.29;23.77;96108.94;5073019;28;20049;-66
2023/08/04 10:34:23;;;;;;;7.82;6.13;;;;;;;38.32;23.15;96110.38;5072909;28;20048;-66
2023/08/04 10:37:04;;;;;;;9.85;5.32;;;;;;;38.26;24.16;96120.38;5072865;28;20078;-67
2023/08/04 10:39:33;;;;;;;6.45;5.85;;;;;;;37.81;24.04;96113.81;5072932;28;20048;-69
2023/08/04 10:42:06;;;;;;;9.23;5.57;;;;;;;37.50;24.73;96114.00;5073043;28;20102;-69
2023/08/04 10:44:53;;;;;;;9.68;6.13;;;;;;;37.27;24.43;96113.00;5076828;28;20052;-68
2023/08/04 10:47:32;;;;;;;13.25;6.32;;;;;;;37.37;25.74;96103.38;5076845;28;20131;-67
2023/08/04 10:50:00;;;;;;;11.18;6.20;;;;;;;37.47;24.97;96106.31;5076801;28;20421;-68
2023/08/04 10:52:27;;;;;;;6.38;5.78;;;;;;;37.42;26.06;96103.50;5076780;28;20052;-67
2023/08/04 10:54:56;;;;;;;6.60;6.00;;;;;;;37.59;25.62;96098.09;5076744;28;20066;-68
2023/08/04 10:57:31;;;;;;;7.35;5.97;;;;;;;37.79;25.14;96097.69;5076683;28;20490;-68
2023/08/04 11:00:00;;;;;;;6.75;6.15;;;;;;;37.92;24.19;96099.28;5076555;28;20054;-67
2023/08/04 11:02:28;;;;;;;9.30;6.13;;;;;;;37.87;24.57;96092.91;5076405;28;20139;-66
2023/08/04 11:04:56;;;;;;;7.28;6.32;;;;;;;37.62;23.76;96104.97;5076503;28;20076;-68
2023/08/04 11:07:24;;;;;;;9.88;6.43;;;;;;;37.69;25.15;96102.13;5076364;28;20053;-66
2023/08/04 11:09:53;;;;;;;10.00;6.28;;;;;;;37.80;24.77;96099.34;5076423;28;20421;-68
2023/08/04 11:12:21;;;;;;;7.40;5.75;;;;;;;37.84;24.84;96093.41;5076343;28;20052;-68
2023/08/04 11:14:50;;;;;;;9.65;6.35;;;;;;;37.77;24.28;96099.81;5076212;28;20084;-67
2023/08/04 11:17:19;;;;;;;9.23;5.93;;;;;;;37.62;24.12;96096.78;5076263;28;20049;-68
2023/08/04 11:19:47;;;;;;;8.18;6.13;;;;;;;37.67;25.26;96100.47;5076127;28;20049;-68
2023/08/04 11:22:16;;;;;;;9.95;6.47;;;;;;;37.62;24.32;96108.50;5076154;28;20058;-68
2023/08/04 11:24:45;;;;;;;10.10;6.80;;;;;;;37.20;24.69;96085.03;5076188;28;20045;-68
2023/08/04 11:27:14;;;;;;;11.35;7.10;;;;;;;37.35;23.24;96081.00;5076113;28;20048;-68
2023/08/04 11:29:41;;;;;;;10.70;6.68;;;;;;;37.27;23.90;96074.84;5075940;28;20482;-67
2023/08/04 11:32:11;;;;;;;13.45;6.75;;;;;;;37.12;24.34;96086.22;5076021;28;20049;-67
2023/08/04 11:34:41;;;;;;;7.63;6.68;;;;;;;36.90;25.10;96065.03;5075920;28;20044;-68
2023/08/04 11:37:09;;;;;;;12.75;6.47;;;;;;;36.97;25.98;96078.56;5075837;28;20052;-68